Pietro Novelli — IOTQ — position and weather

sailwx.info

Track history (hours):
 
Tides and Currents Weather Stations Pressure Air Temp Water Temp Dewpoint Dewpoint Depression Visibility Wind Speed Wind Dir Waves Ship Positions

Pietro Novelli

Last reported at 2017-Mar-29 22:08 UTC. Time now 2017-Mar-30 06:36 UTC.
Position N 37°51' E 012°22'.

Length 91 m; draft 3.7 m.

Type: Ship. MMSI: 247000300.

Date/timePositionNaut miles runAvg speedWind from/ knotsBaromVisibWave heightAir tempDewpointWater temp
2017-Mar-29 22:08N 37°51' E 012°22'711.7
2017-Mar-29 21:33N 37°57' E 012°25'6 5.8
2017-Mar-29 20:33N 38°01' E 012°30'0 0.0
2017-Mar-29 19:33N 38°01' E 012°30'0 0.0
2017-Mar-29 18:33N 38°01' E 012°30'0 0.0
2017-Mar-29 17:33N 38°01' E 012°30'0 0.0
2017-Mar-29 16:33N 38°01' E 012°30'0 0.0
2017-Mar-29 15:33N 38°01' E 012°30'0 0.0
2017-Mar-29 14:33N 38°01' E 012°30'9 9.3
2017-Mar-29 13:33N 37°54' E 012°23'5 0.3
2017-Mar-28 22:29N 37°49' E 012°21'1111.3
2017-Mar-28 21:33N 37°59' E 012°27'4 3.6
2017-Mar-28 20:33N 38°01' E 012°30'0 0.0
2017-Mar-28 19:33N 38°01' E 012°30'0 0.0
2017-Mar-28 18:33N 38°01' E 012°30'0 0.0
2017-Mar-28 17:33N 38°01' E 012°30'0 0.0
2017-Mar-28 16:33N 38°01' E 012°30'0 0.0
2017-Mar-28 15:33N 38°01' E 012°30'0 0.0
2017-Mar-28 14:33N 38°01' E 012°30'7 7.1
2017-Mar-28 13:33N 37°56' E 012°24'6 0.4
2017-Mar-27 22:08N 37°50' E 012°22'712.2
2017-Mar-27 21:33N 37°57' E 012°25'6 5.9
2017-Mar-27 20:33N 38°01' E 012°30'0 0.0
2017-Mar-27 19:33N 38°01' E 012°30'0 0.0
2017-Mar-27 18:33N 38°01' E 012°30'0 0.0
2017-Mar-27 17:33N 38°01' E 012°30'0 0.0
2017-Mar-27 16:33N 38°01' E 012°30'0 0.0
2017-Mar-27 15:33N 38°01' E 012°30'0 0.0
2017-Mar-27 14:33N 38°01' E 012°30'5 4.9
2017-Mar-27 13:33N 37°58' E 012°26'8 0.5
2017-Mar-26 22:12N 37°50' E 012°21'811.8
2017-Mar-26 21:33N 37°57' E 012°25'5 5.5
2017-Mar-26 20:33N 38°01' E 012°30'0 0.0
2017-Mar-26 19:33N 38°01' E 012°30'0 0.0
2017-Mar-26 18:33N 38°01' E 012°30'0 0.0
2017-Mar-26 17:33N 38°01' E 012°30'0 0.0
2017-Mar-26 16:33N 38°01' E 012°30'0 0.0
2017-Mar-26 15:33N 38°01' E 012°30'0 0.0
2017-Mar-26 14:33N 38°01' E 012°30'0 0.0
2017-Mar-26 13:33N 38°01' E 012°30'0 0.0
2017-Mar-26 12:33N 38°01' E 012°30'0 0.0
2017-Mar-26 11:33N 38°01' E 012°30'0 0.0
2017-Mar-26 10:33N 38°01' E 012°30'0 0.0
2017-Mar-26 09:33N 38°01' E 012°30'0 0.0
2017-Mar-26 08:33N 38°01' E 012°30'0 0.0
2017-Mar-26 07:33N 38°01' E 012°30'0 0.0
2017-Mar-26 06:33N 38°01' E 012°30'0 0.0
2017-Mar-26 05:33N 38°01' E 012°30'0 0.0
2017-Mar-26 04:33N 38°01' E 012°30'0 0.0
2017-Mar-26 03:33N 38°01' E 012°30'0 0.0
2017-Mar-26 02:33N 38°01' E 012°30'0 0.0
2017-Mar-26 01:33N 38°01' E 012°30'0 0.0
2017-Mar-26 00:33N 38°01' E 012°30'0 0.0
2017-Mar-25 23:33N 38°01' E 012°30'0 0.0
2017-Mar-25 22:33N 38°01' E 012°30'0 0.0
2017-Mar-25 21:33N 38°01' E 012°30'0 0.0
2017-Mar-25 20:33N 38°01' E 012°30'0 0.0
2017-Mar-25 19:33N 38°01' E 012°30'0 0.0
2017-Mar-25 18:33N 38°01' E 012°30'0 0.0
2017-Mar-25 17:33N 38°01' E 012°30'4 4.1
2017-Mar-25 16:33N 37°59' E 012°26'1312.6
2017-Mar-25 15:33N 37°47' E 012°19'3 0.2
2017-Mar-25 00:07N 37°50' E 012°21'712.1
2017-Mar-24 23:33N 37°56' E 012°25'6 6.2
2017-Mar-24 22:33N 38°01' E 012°30'0 0.0
2017-Mar-24 21:33N 38°01' E 012°30'0 0.0
2017-Mar-24 20:33N 38°01' E 012°30'0 0.0
2017-Mar-24 19:33N 38°01' E 012°30'0 0.0
2017-Mar-24 18:33N 38°01' E 012°30'0 0.0
2017-Mar-24 17:33N 38°01' E 012°30'1 0.9
2017-Mar-24 16:33N 38°00' E 012°30'1313.2
2017-Mar-24 15:33N 37°50' E 012°19'2 0.1
2017-Mar-23 23:29N 37°51' E 012°21'1111.7
2017-Mar-23 22:33N 37°60' E 012°28'2 2.0
2017-Mar-23 21:34N 38°01' E 012°30'0 0.0
2017-Mar-23 20:34N 38°01' E 012°30'0 0.0
2017-Mar-23 19:34N 38°01' E 012°30'0 0.0
2017-Mar-23 18:34N 38°01' E 012°30'0 0.0
2017-Mar-23 17:33N 38°01' E 012°30'0 0.0
2017-Mar-23 16:33N 38°01' E 012°30'0 0.0
2017-Mar-23 15:33N 38°01' E 012°30'2 2.4
2017-Mar-23 14:33N 37°60' E 012°28'1312.6
2017-Mar-23 13:33N 37°49' E 012°20'3 0.2
2017-Mar-22 23:27N 37°51' E 012°22'1011.3
2017-Mar-22 22:33N 38°00' E 012°29'1 1.2
2017-Mar-22 21:33N 38°01' E 012°30'0 0.0
2017-Mar-22 20:33N 38°01' E 012°30'0 0.0
2017-Mar-22 19:33N 38°01' E 012°30'0 0.0
2017-Mar-22 18:33N 38°01' E 012°30'0 0.0
2017-Mar-22 17:33N 38°01' E 012°30'0 0.0
2017-Mar-22 16:33N 38°01' E 012°30'0 0.0
2017-Mar-22 15:33N 38°01' E 012°30'7 6.9
2017-Mar-22 14:33N 37°56' E 012°24'6 0.4
2017-Mar-21 23:21N 37°50' E 012°21'910.9
2017-Mar-21 22:33N 37°58' E 012°26'4 4.1
2017-Mar-21 21:33N 38°01' E 012°30'0 0.0
2017-Mar-21 20:33N 38°01' E 012°30'0 0.0
2017-Mar-21 19:33N 38°01' E 012°30'0 0.0
2017-Mar-21 18:33N 38°01' E 012°30'0 0.0
2017-Mar-21 17:33N 38°01' E 012°30'0 0.0
2017-Mar-21 16:33N 38°01' E 012°30'0 0.0
2017-Mar-21 15:33N 38°01' E 012°30'5 5.4
2017-Mar-21 14:33N 37°57' E 012°25'1312.6
2017-Mar-21 13:33N 37°46' E 012°18'1312.8
2017-Mar-21 12:33N 37°34' E 012°13'6 0.5
2017-Mar-21 00:28N 37°39' E 012°17'1010.6
2017-Mar-20 23:31N 37°48' E 012°20'1111.1
2017-Mar-20 22:33N 37°58' E 012°26'4 4.5
2017-Mar-20 21:33N 38°01' E 012°30'0 0.0
2017-Mar-20 20:33N 38°01' E 012°30'0 0.0
2017-Mar-20 19:33N 38°01' E 012°30'0 0.0
2017-Mar-20 18:33N 38°01' E 012°30'0 0.0
2017-Mar-20 17:33N 38°01' E 012°30'0 0.0
2017-Mar-20 16:33N 38°01' E 012°30'0 0.0
2017-Mar-20 15:33N 38°01' E 012°30'2 1.6
2017-Mar-20 14:33N 37°60' E 012°29'1211.8
2017-Mar-20 13:33N 37°50' E 012°20'2913.8
2017-Mar-20 11:27N 37°23' E 012°07'1714.1
2017-Mar-20 10:15N 37°07' E 012°02'1014.2
2017-Mar-20 09:33N 36°57' E 011°59'2 0.3
2017-Mar-20 04:28N 36°59' E 011°60'5310.4
2017-Mar-19 23:22N 37°50' E 012°21'810.4
2017-Mar-19 22:33N 37°57' E 012°25'  
Track history (hours):
 
Tides and Currents Weather Stations Pressure Air Temp Water Temp Dewpoint Dewpoint Depression Visibility Wind Speed Wind Dir Waves Ship Positions

Pietro Novelli

Last reported at 2017-Mar-29 22:08 UTC. Time now 2017-Mar-30 06:36 UTC.
Position N 37°51' E 012°22'.

Length 91 m; draft 3.7 m.

Type: Ship. MMSI: 247000300.

Date/timePositionNaut miles runAvg speedWind from/ knotsBaromVisibWave heightAir tempDewpointWater temp
2017-Mar-29 22:08N 37°51' E 012°22'711.7
2017-Mar-29 21:33N 37°57' E 012°25'6 5.8
2017-Mar-29 20:33N 38°01' E 012°30'0 0.0
2017-Mar-29 19:33N 38°01' E 012°30'0 0.0
2017-Mar-29 18:33N 38°01' E 012°30'0 0.0
2017-Mar-29 17:33N 38°01' E 012°30'0 0.0
2017-Mar-29 16:33N 38°01' E 012°30'0 0.0
2017-Mar-29 15:33N 38°01' E 012°30'0 0.0
2017-Mar-29 14:33N 38°01' E 012°30'9 9.3
2017-Mar-29 13:33N 37°54' E 012°23'5 0.3
2017-Mar-28 22:29N 37°49' E 012°21'1111.3
2017-Mar-28 21:33N 37°59' E 012°27'4 3.6
2017-Mar-28 20:33N 38°01' E 012°30'0 0.0
2017-Mar-28 19:33N 38°01' E 012°30'0 0.0
2017-Mar-28 18:33N 38°01' E 012°30'0 0.0
2017-Mar-28 17:33N 38°01' E 012°30'0 0.0
2017-Mar-28 16:33N 38°01' E 012°30'0 0.0
2017-Mar-28 15:33N 38°01' E 012°30'0 0.0
2017-Mar-28 14:33N 38°01' E 012°30'7 7.1
2017-Mar-28 13:33N 37°56' E 012°24'6 0.4
2017-Mar-27 22:08N 37°50' E 012°22'712.2
2017-Mar-27 21:33N 37°57' E 012°25'6 5.9
2017-Mar-27 20:33N 38°01' E 012°30'0 0.0
2017-Mar-27 19:33N 38°01' E 012°30'0 0.0
2017-Mar-27 18:33N 38°01' E 012°30'0 0.0
2017-Mar-27 17:33N 38°01' E 012°30'0 0.0
2017-Mar-27 16:33N 38°01' E 012°30'0 0.0
2017-Mar-27 15:33N 38°01' E 012°30'0 0.0
2017-Mar-27 14:33N 38°01' E 012°30'5 4.9
2017-Mar-27 13:33N 37°58' E 012°26'8 0.5
2017-Mar-26 22:12N 37°50' E 012°21'811.8
2017-Mar-26 21:33N 37°57' E 012°25'5 5.5
2017-Mar-26 20:33N 38°01' E 012°30'0 0.0
2017-Mar-26 19:33N 38°01' E 012°30'0 0.0
2017-Mar-26 18:33N 38°01' E 012°30'0 0.0
2017-Mar-26 17:33N 38°01' E 012°30'0 0.0
2017-Mar-26 16:33N 38°01' E 012°30'0 0.0
2017-Mar-26 15:33N 38°01' E 012°30'0 0.0
2017-Mar-26 14:33N 38°01' E 012°30'0 0.0
2017-Mar-26 13:33N 38°01' E 012°30'0 0.0
2017-Mar-26 12:33N 38°01' E 012°30'0 0.0
2017-Mar-26 11:33N 38°01' E 012°30'0 0.0
2017-Mar-26 10:33N 38°01' E 012°30'0 0.0
2017-Mar-26 09:33N 38°01' E 012°30'0 0.0
2017-Mar-26 08:33N 38°01' E 012°30'0 0.0
2017-Mar-26 07:33N 38°01' E 012°30'0 0.0
2017-Mar-26 06:33N 38°01' E 012°30'0 0.0
2017-Mar-26 05:33N 38°01' E 012°30'0 0.0
2017-Mar-26 04:33N 38°01' E 012°30'0 0.0
2017-Mar-26 03:33N 38°01' E 012°30'0 0.0
2017-Mar-26 02:33N 38°01' E 012°30'0 0.0
2017-Mar-26 01:33N 38°01' E 012°30'0 0.0
2017-Mar-26 00:33N 38°01' E 012°30'0 0.0
2017-Mar-25 23:33N 38°01' E 012°30'0 0.0
2017-Mar-25 22:33N 38°01' E 012°30'0 0.0
2017-Mar-25 21:33N 38°01' E 012°30'0 0.0
2017-Mar-25 20:33N 38°01' E 012°30'0 0.0
2017-Mar-25 19:33N 38°01' E 012°30'0 0.0
2017-Mar-25 18:33N 38°01' E 012°30'0 0.0
2017-Mar-25 17:33N 38°01' E 012°30'4 4.1
2017-Mar-25 16:33N 37°59' E 012°26'1312.6
2017-Mar-25 15:33N 37°47' E 012°19'3 0.2
2017-Mar-25 00:07N 37°50' E 012°21'712.1
2017-Mar-24 23:33N 37°56' E 012°25'6 6.2
2017-Mar-24 22:33N 38°01' E 012°30'0 0.0
2017-Mar-24 21:33N 38°01' E 012°30'0 0.0
2017-Mar-24 20:33N 38°01' E 012°30'0 0.0
2017-Mar-24 19:33N 38°01' E 012°30'0 0.0
2017-Mar-24 18:33N 38°01' E 012°30'0 0.0
2017-Mar-24 17:33N 38°01' E 012°30'1 0.9
2017-Mar-24 16:33N 38°00' E 012°30'1313.2
2017-Mar-24 15:33N 37°50' E 012°19'2 0.1
2017-Mar-23 23:29N 37°51' E 012°21'1111.7
2017-Mar-23 22:33N 37°60' E 012°28'2 2.0
2017-Mar-23 21:34N 38°01' E 012°30'0 0.0
2017-Mar-23 20:34N 38°01' E 012°30'0 0.0
2017-Mar-23 19:34N 38°01' E 012°30'0 0.0
2017-Mar-23 18:34N 38°01' E 012°30'0 0.0
2017-Mar-23 17:33N 38°01' E 012°30'0 0.0
2017-Mar-23 16:33N 38°01' E 012°30'0 0.0
2017-Mar-23 15:33N 38°01' E 012°30'2 2.4
2017-Mar-23 14:33N 37°60' E 012°28'1312.6
2017-Mar-23 13:33N 37°49' E 012°20'3 0.2
2017-Mar-22 23:27N 37°51' E 012°22'1011.3
2017-Mar-22 22:33N 38°00' E 012°29'1 1.2
2017-Mar-22 21:33N 38°01' E 012°30'0 0.0
2017-Mar-22 20:33N 38°01' E 012°30'0 0.0
2017-Mar-22 19:33N 38°01' E 012°30'0 0.0
2017-Mar-22 18:33N 38°01' E 012°30'0 0.0
2017-Mar-22 17:33N 38°01' E 012°30'0 0.0
2017-Mar-22 16:33N 38°01' E 012°30'0 0.0
2017-Mar-22 15:33N 38°01' E 012°30'7 6.9
2017-Mar-22 14:33N 37°56' E 012°24'6 0.4
2017-Mar-21 23:21N 37°50' E 012°21'910.9
2017-Mar-21 22:33N 37°58' E 012°26'4 4.1
2017-Mar-21 21:33N 38°01' E 012°30'0 0.0
2017-Mar-21 20:33N 38°01' E 012°30'0 0.0
2017-Mar-21 19:33N 38°01' E 012°30'0 0.0
2017-Mar-21 18:33N 38°01' E 012°30'0 0.0
2017-Mar-21 17:33N 38°01' E 012°30'0 0.0
2017-Mar-21 16:33N 38°01' E 012°30'0 0.0
2017-Mar-21 15:33N 38°01' E 012°30'5 5.4
2017-Mar-21 14:33N 37°57' E 012°25'1312.6
2017-Mar-21 13:33N 37°46' E 012°18'1312.8
2017-Mar-21 12:33N 37°34' E 012°13'6 0.5
2017-Mar-21 00:28N 37°39' E 012°17'1010.6
2017-Mar-20 23:31N 37°48' E 012°20'1111.1
2017-Mar-20 22:33N 37°58' E 012°26'4 4.5
2017-Mar-20 21:33N 38°01' E 012°30'0 0.0
2017-Mar-20 20:33N 38°01' E 012°30'0 0.0
2017-Mar-20 19:33N 38°01' E 012°30'0 0.0
2017-Mar-20 18:33N 38°01' E 012°30'0 0.0
2017-Mar-20 17:33N 38°01' E 012°30'0 0.0
2017-Mar-20 16:33N 38°01' E 012°30'0 0.0
2017-Mar-20 15:33N 38°01' E 012°30'2 1.6
2017-Mar-20 14:33N 37°60' E 012°29'1211.8
2017-Mar-20 13:33N 37°50' E 012°20'2913.8
2017-Mar-20 11:27N 37°23' E 012°07'1714.1
2017-Mar-20 10:15N 37°07' E 012°02'1014.2
2017-Mar-20 09:33N 36°57' E 011°59'2 0.3
2017-Mar-20 04:28N 36°59' E 011°60'5310.4
2017-Mar-19 23:22N 37°50' E 012°21'810.4
2017-Mar-19 22:33N 37°57' E 012°25'  

Dump ship's entire track history